sensor_id;sensor_type;location;lat;lon;timestamp;P1;durP1;ratioP1;P2;durP2;ratioP2
7289;SDS011;63176;52.678;13.250;2023-02-13T00:01:09;3.67;;;2.53;;
7289;SDS011;63176;52.678;13.250;2023-02-13T00:03:35;3.93;;;2.50;;
7289;SDS011;63176;52.678;13.250;2023-02-13T00:06:01;5.73;;;2.20;;
7289;SDS011;63176;52.678;13.250;2023-02-13T00:08:26;3.57;;;1.90;;
7289;SDS011;63176;52.678;13.250;2023-02-13T00:10:52;1.93;;;1.70;;
7289;SDS011;63176;52.678;13.250;2023-02-13T00:13:17;1.67;;;1.57;;
7289;SDS011;63176;52.678;13.250;2023-02-13T00:15:43;4.83;;;1.90;;
7289;SDS011;63176;52.678;13.250;2023-02-13T00:18:09;4.00;;;1.90;;
7289;SDS011;63176;52.678;13.250;2023-02-13T00:20:35;3.20;;;1.73;;
7289;SDS011;63176;52.678;13.250;2023-02-13T00:23:00;3.23;;;1.90;;
7289;SDS011;63176;52.678;13.250;2023-02-13T00:25:26;2.40;;;1.20;;
7289;SDS011;63176;52.678;13.250;2023-02-13T00:27:52;1.40;;;0.97;;
7289;SDS011;63176;52.678;13.250;2023-02-13T00:30:18;1.60;;;1.30;;
7289;SDS011;63176;52.678;13.250;2023-02-13T00:32:44;1.95;;;1.45;;
7289;SDS011;63176;52.678;13.250;2023-02-13T00:35:10;1.80;;;1.27;;
7289;SDS011;63176;52.678;13.250;2023-02-13T00:37:36;1.60;;;1.20;;
7289;SDS011;63176;52.678;13.250;2023-02-13T00:40:01;1.90;;;1.23;;
7289;SDS011;63176;52.678;13.250;2023-02-13T00:42:27;1.73;;;1.20;;
7289;SDS011;63176;52.678;13.250;2023-02-13T00:44:53;1.20;;;1.10;;
7289;SDS011;63176;52.678;13.250;2023-02-13T00:47:19;1.90;;;1.00;;
7289;SDS011;63176;52.678;13.250;2023-02-13T00:49:44;1.33;;;1.00;;
7289;SDS011;63176;52.678;13.250;2023-02-13T00:52:10;1.20;;;1.10;;
7289;SDS011;63176;52.678;13.250;2023-02-13T00:54:36;1.77;;;1.02;;
7289;SDS011;63176;52.678;13.250;2023-02-13T00:57:02;2.43;;;1.30;;
7289;SDS011;63176;52.678;13.250;2023-02-13T00:59:28;3.72;;;1.27;;
7289;SDS011;63176;52.678;13.250;2023-02-13T01:01:54;1.10;;;1.00;;
7289;SDS011;63176;52.678;13.250;2023-02-13T01:04:19;2.60;;;1.50;;
7289;SDS011;63176;52.678;13.250;2023-02-13T01:06:45;2.97;;;1.63;;
7289;SDS011;63176;52.678;13.250;2023-02-13T01:09:10;2.40;;;1.30;;
7289;SDS011;63176;52.678;13.250;2023-02-13T01:11:36;7.23;;;1.60;;
7289;SDS011;63176;52.678;13.250;2023-02-13T01:14:01;1.50;;;0.93;;
7289;SDS011;63176;52.678;13.250;2023-02-13T01:16:27;1.47;;;1.07;;
7289;SDS011;63176;52.678;13.250;2023-02-13T01:18:53;3.57;;;1.80;;
7289;SDS011;63176;52.678;13.250;2023-02-13T01:21:20;1.60;;;1.10;;
7289;SDS011;63176;52.678;13.250;2023-02-13T01:23:47;3.05;;;1.85;;
7289;SDS011;63176;52.678;13.250;2023-02-13T01:26:21;1.63;;;1.23;;
7289;SDS011;63176;52.678;13.250;2023-02-13T01:28:52;2.80;;;1.10;;
7289;SDS011;63176;52.678;13.250;2023-02-13T01:31:19;2.30;;;1.40;;
7289;SDS011;63176;52.678;13.250;2023-02-13T01:33:45;3.10;;;1.10;;
7289;SDS011;63176;52.678;13.250;2023-02-13T01:36:11;1.23;;;1.13;;
7289;SDS011;63176;52.678;13.250;2023-02-13T01:38:38;1.67;;;1.48;;
7289;SDS011;63176;52.678;13.250;2023-02-13T01:41:04;2.10;;;1.30;;
7289;SDS011;63176;52.678;13.250;2023-02-13T01:46:08;2.40;;;1.40;;
7289;SDS011;63176;52.678;13.250;2023-02-13T01:48:35;1.55;;;1.30;;
7289;SDS011;63176;52.678;13.250;2023-02-13T01:51:02;2.20;;;1.30;;
7289;SDS011;63176;52.678;13.250;2023-02-13T01:53:43;2.22;;;1.75;;
7289;SDS011;63176;52.678;13.250;2023-02-13T01:58:44;3.80;;;2.13;;
7289;SDS011;63176;52.678;13.250;2023-02-13T02:01:12;1.63;;;1.05;;
7289;SDS011;63176;52.678;13.250;2023-02-13T02:06:20;4.28;;;1.85;;
7289;SDS011;63176;52.678;13.250;2023-02-13T02:08:52;2.97;;;2.20;;
7289;SDS011;63176;52.678;13.250;2023-02-13T02:14:17;3.50;;;1.85;;
7289;SDS011;63176;52.678;13.250;2023-02-13T02:16:43;3.17;;;2.40;;
7289;SDS011;63176;52.678;13.250;2023-02-13T02:19:14;2.00;;;1.63;;
7289;SDS011;63176;52.678;13.250;2023-02-13T02:33:17;2.92;;;2.03;;
7289;SDS011;63176;52.678;13.250;2023-02-13T02:36:01;2.88;;;1.73;;
7289;SDS011;63176;52.678;13.250;2023-02-13T02:41:27;4.15;;;2.00;;
7289;SDS011;63176;52.678;13.250;2023-02-13T02:47:43;4.38;;;2.85;;
7289;SDS011;63176;52.678;13.250;2023-02-13T02:51:06;3.55;;;2.78;;
7289;SDS011;63176;52.678;13.250;2023-02-13T02:53:42;4.80;;;3.00;;
7289;SDS011;63176;52.678;13.250;2023-02-13T02:56:22;5.05;;;2.67;;
7289;SDS011;63176;52.678;13.250;2023-02-13T02:58:51;6.38;;;3.13;;
7289;SDS011;63176;52.678;13.250;2023-02-13T03:01:48;6.32;;;2.30;;
7289;SDS011;63176;52.678;13.250;2023-02-13T03:04:35;4.03;;;2.22;;
7289;SDS011;63176;52.678;13.250;2023-02-13T03:07:23;6.00;;;2.45;;
7289;SDS011;63176;52.678;13.250;2023-02-13T03:09:54;6.47;;;2.80;;
7289;SDS011;63176;52.678;13.250;2023-02-13T03:12:47;3.17;;;2.75;;
7289;SDS011;63176;52.678;13.250;2023-02-13T03:15:49;4.65;;;2.45;;
7289;SDS011;63176;52.678;13.250;2023-02-13T03:18:38;3.95;;;2.42;;
7289;SDS011;63176;52.678;13.250;2023-02-13T03:33:28;4.22;;;2.85;;
7289;SDS011;63176;52.678;13.250;2023-02-13T03:36:13;4.70;;;2.85;;
7289;SDS011;63176;52.678;13.250;2023-02-13T03:41:42;3.35;;;2.80;;
7289;SDS011;63176;52.678;13.250;2023-02-13T03:44:16;4.10;;;2.40;;
7289;SDS011;63176;52.678;13.250;2023-02-13T03:46:49;6.93;;;2.80;;
7289;SDS011;63176;52.678;13.250;2023-02-13T03:49:19;4.68;;;3.00;;
7289;SDS011;63176;52.678;13.250;2023-02-13T03:53:03;4.35;;;2.70;;
7289;SDS011;63176;52.678;13.250;2023-02-13T03:55:12;3.42;;;2.60;;
7289;SDS011;63176;52.678;13.250;2023-02-13T03:58:05;4.03;;;2.72;;
7289;SDS011;63176;52.678;13.250;2023-02-13T04:00:54;7.10;;;3.00;;
7289;SDS011;63176;52.678;13.250;2023-02-13T04:06:02;4.47;;;2.88;;
7289;SDS011;63176;52.678;13.250;2023-02-13T04:08:35;4.30;;;2.95;;
7289;SDS011;63176;52.678;13.250;2023-02-13T04:13:48;5.25;;;2.75;;
7289;SDS011;63176;52.678;13.250;2023-02-13T04:16:23;5.38;;;2.80;;
7289;SDS011;63176;52.678;13.250;2023-02-13T04:18:55;4.28;;;2.47;;
7289;SDS011;63176;52.678;13.250;2023-02-13T04:21:21;4.28;;;2.58;;
7289;SDS011;63176;52.678;13.250;2023-02-13T04:23:48;5.20;;;3.10;;
7289;SDS011;63176;52.678;13.250;2023-02-13T04:26:17;6.40;;;3.03;;
7289;SDS011;63176;52.678;13.250;2023-02-13T04:28:45;5.70;;;3.03;;
7289;SDS011;63176;52.678;13.250;2023-02-13T04:31:11;3.70;;;2.67;;
7289;SDS011;63176;52.678;13.250;2023-02-13T04:33:37;3.17;;;2.87;;
7289;SDS011;63176;52.678;13.250;2023-02-13T04:36:02;7.03;;;3.60;;
7289;SDS011;63176;52.678;13.250;2023-02-13T04:38:29;4.65;;;3.10;;
7289;SDS011;63176;52.678;13.250;2023-02-13T04:40:54;5.33;;;2.73;;
7289;SDS011;63176;52.678;13.250;2023-02-13T04:43:20;5.17;;;3.50;;
7289;SDS011;63176;52.678;13.250;2023-02-13T04:45:49;4.93;;;3.00;;
7289;SDS011;63176;52.678;13.250;2023-02-13T04:48:14;5.53;;;3.55;;
7289;SDS011;63176;52.678;13.250;2023-02-13T04:50:40;5.30;;;3.20;;
7289;SDS011;63176;52.678;13.250;2023-02-13T04:53:06;5.00;;;3.17;;
7289;SDS011;63176;52.678;13.250;2023-02-13T04:55:31;4.97;;;3.33;;
7289;SDS011;63176;52.678;13.250;2023-02-13T04:57:57;4.60;;;3.23;;
7289;SDS011;63176;52.678;13.250;2023-02-13T05:00:24;7.00;;;3.30;;
7289;SDS011;63176;52.678;13.250;2023-02-13T05:02:51;5.10;;;2.92;;
7289;SDS011;63176;52.678;13.250;2023-02-13T05:05:17;5.90;;;3.63;;
7289;SDS011;63176;52.678;13.250;2023-02-13T05:07:43;6.40;;;3.00;;
7289;SDS011;63176;52.678;13.250;2023-02-13T05:10:09;6.47;;;3.97;;
7289;SDS011;63176;52.678;13.250;2023-02-13T05:12:36;5.75;;;3.45;;
7289;SDS011;63176;52.678;13.250;2023-02-13T05:15:02;8.52;;;4.20;;
7289;SDS011;63176;52.678;13.250;2023-02-13T05:17:28;8.30;;;4.00;;
7289;SDS011;63176;52.678;13.250;2023-02-13T05:19:54;6.67;;;4.13;;
7289;SDS011;63176;52.678;13.250;2023-02-13T05:22:19;4.50;;;2.43;;
7289;SDS011;63176;52.678;13.250;2023-02-13T05:25:03;5.15;;;3.22;;
7289;SDS011;63176;52.678;13.250;2023-02-13T05:27:29;6.30;;;3.70;;
7289;SDS011;63176;52.678;13.250;2023-02-13T05:29:55;4.17;;;2.80;;
7289;SDS011;63176;52.678;13.250;2023-02-13T05:32:20;5.70;;;3.60;;
7289;SDS011;63176;52.678;13.250;2023-02-13T05:34:46;7.17;;;3.87;;
7289;SDS011;63176;52.678;13.250;2023-02-13T05:37:11;5.23;;;3.20;;
7289;SDS011;63176;52.678;13.250;2023-02-13T05:39:37;5.77;;;3.20;;
7289;SDS011;63176;52.678;13.250;2023-02-13T05:42:03;5.90;;;3.17;;
7289;SDS011;63176;52.678;13.250;2023-02-13T05:44:29;6.13;;;3.47;;
7289;SDS011;63176;52.678;13.250;2023-02-13T05:46:55;5.85;;;3.55;;
7289;SDS011;63176;52.678;13.250;2023-02-13T05:49:21;4.07;;;2.70;;
7289;SDS011;63176;52.678;13.250;2023-02-13T05:51:47;6.30;;;3.93;;
7289;SDS011;63176;52.678;13.250;2023-02-13T05:54:16;7.63;;;3.60;;
7289;SDS011;63176;52.678;13.250;2023-02-13T05:56:41;8.30;;;3.10;;
7289;SDS011;63176;52.678;13.250;2023-02-13T05:59:07;5.80;;;3.67;;
7289;SDS011;63176;52.678;13.250;2023-02-13T06:01:33;6.73;;;3.53;;
7289;SDS011;63176;52.678;13.250;2023-02-13T06:03:59;5.10;;;3.40;;
7289;SDS011;63176;52.678;13.250;2023-02-13T06:06:25;6.80;;;3.87;;
7289;SDS011;63176;52.678;13.250;2023-02-13T06:08:50;4.67;;;3.17;;
7289;SDS011;63176;52.678;13.250;2023-02-13T06:11:16;4.03;;;2.83;;
7289;SDS011;63176;52.678;13.250;2023-02-13T06:13:42;4.60;;;3.05;;
7289;SDS011;63176;52.678;13.250;2023-02-13T06:16:08;4.57;;;2.97;;
7289;SDS011;63176;52.678;13.250;2023-02-13T06:18:35;4.95;;;3.25;;
7289;SDS011;63176;52.678;13.250;2023-02-13T06:21:01;5.05;;;2.50;;
7289;SDS011;63176;52.678;13.250;2023-02-13T06:23:27;5.57;;;3.42;;
7289;SDS011;63176;52.678;13.250;2023-02-13T06:25:53;6.72;;;3.17;;
7289;SDS011;63176;52.678;13.250;2023-02-13T06:28:19;7.23;;;2.90;;
7289;SDS011;63176;52.678;13.250;2023-02-13T06:30:44;7.27;;;3.00;;
7289;SDS011;63176;52.678;13.250;2023-02-13T06:33:11;4.65;;;2.92;;
7289;SDS011;63176;52.678;13.250;2023-02-13T06:35:36;9.90;;;3.47;;
7289;SDS011;63176;52.678;13.250;2023-02-13T06:38:02;6.27;;;3.67;;
7289;SDS011;63176;52.678;13.250;2023-02-13T06:40:28;8.13;;;4.10;;
7289;SDS011;63176;52.678;13.250;2023-02-13T06:42:53;6.80;;;3.37;;
7289;SDS011;63176;52.678;13.250;2023-02-13T06:45:19;6.00;;;3.37;;
7289;SDS011;63176;52.678;13.250;2023-02-13T06:47:45;6.60;;;3.97;;
7289;SDS011;63176;52.678;13.250;2023-02-13T06:50:12;4.70;;;2.90;;
7289;SDS011;63176;52.678;13.250;2023-02-13T06:52:44;5.72;;;3.20;;
7289;SDS011;63176;52.678;13.250;2023-02-13T06:55:13;5.82;;;3.00;;
7289;SDS011;63176;52.678;13.250;2023-02-13T06:57:40;4.93;;;3.28;;
7289;SDS011;63176;52.678;13.250;2023-02-13T07:00:07;7.05;;;4.32;;
7289;SDS011;63176;52.678;13.250;2023-02-13T07:02:37;7.53;;;4.45;;
7289;SDS011;63176;52.678;13.250;2023-02-13T07:05:03;7.05;;;3.60;;
7289;SDS011;63176;52.678;13.250;2023-02-13T07:07:31;7.77;;;4.00;;
7289;SDS011;63176;52.678;13.250;2023-02-13T07:10:01;8.07;;;3.80;;
7289;SDS011;63176;52.678;13.250;2023-02-13T07:12:27;7.75;;;4.35;;
7289;SDS011;63176;52.678;13.250;2023-02-13T07:14:53;6.27;;;4.20;;
7289;SDS011;63176;52.678;13.250;2023-02-13T07:17:19;6.93;;;4.60;;
7289;SDS011;63176;52.678;13.250;2023-02-13T07:19:44;5.50;;;3.30;;
7289;SDS011;63176;52.678;13.250;2023-02-13T07:22:10;5.33;;;3.60;;
7289;SDS011;63176;52.678;13.250;2023-02-13T07:24:35;7.87;;;3.60;;
7289;SDS011;63176;52.678;13.250;2023-02-13T07:27:03;6.28;;;3.53;;
7289;SDS011;63176;52.678;13.250;2023-02-13T07:29:29;6.65;;;4.22;;
7289;SDS011;63176;52.678;13.250;2023-02-13T07:31:54;6.40;;;3.57;;
7289;SDS011;63176;52.678;13.250;2023-02-13T07:34:20;12.13;;;4.20;;
7289;SDS011;63176;52.678;13.250;2023-02-13T07:36:46;7.70;;;3.57;;
7289;SDS011;63176;52.678;13.250;2023-02-13T07:39:11;5.47;;;3.77;;
7289;SDS011;63176;52.678;13.250;2023-02-13T07:41:37;8.87;;;4.23;;
7289;SDS011;63176;52.678;13.250;2023-02-13T07:44:02;5.70;;;3.93;;
7289;SDS011;63176;52.678;13.250;2023-02-13T07:46:28;7.60;;;3.70;;
7289;SDS011;63176;52.678;13.250;2023-02-13T07:48:54;12.93;;;3.57;;
7289;SDS011;63176;52.678;13.250;2023-02-13T07:51:20;7.50;;;4.10;;
7289;SDS011;63176;52.678;13.250;2023-02-13T07:53:49;5.85;;;3.83;;
7289;SDS011;63176;52.678;13.250;2023-02-13T07:56:16;6.55;;;3.67;;
7289;SDS011;63176;52.678;13.250;2023-02-13T07:58:42;5.27;;;3.33;;
7289;SDS011;63176;52.678;13.250;2023-02-13T08:01:09;7.55;;;4.28;;
7289;SDS011;63176;52.678;13.250;2023-02-13T08:03:36;6.95;;;4.10;;
7289;SDS011;63176;52.678;13.250;2023-02-13T08:06:02;5.95;;;3.60;;
7289;SDS011;63176;52.678;13.250;2023-02-13T08:08:29;6.68;;;3.92;;
7289;SDS011;63176;52.678;13.250;2023-02-13T08:10:54;5.50;;;3.17;;
7289;SDS011;63176;52.678;13.250;2023-02-13T08:13:39;7.20;;;3.22;;
7289;SDS011;63176;52.678;13.250;2023-02-13T08:16:05;8.13;;;4.00;;
7289;SDS011;63176;52.678;13.250;2023-02-13T08:18:31;7.73;;;4.40;;
7289;SDS011;63176;52.678;13.250;2023-02-13T08:20:57;6.00;;;3.67;;
7289;SDS011;63176;52.678;13.250;2023-02-13T08:23:22;6.80;;;4.07;;
7289;SDS011;63176;52.678;13.250;2023-02-13T08:25:48;7.10;;;3.83;;
7289;SDS011;63176;52.678;13.250;2023-02-13T08:28:14;6.57;;;4.10;;
7289;SDS011;63176;52.678;13.250;2023-02-13T08:30:40;7.32;;;4.60;;
7289;SDS011;63176;52.678;13.250;2023-02-13T08:33:06;5.90;;;4.23;;
7289;SDS011;63176;52.678;13.250;2023-02-13T08:35:31;8.50;;;4.37;;
7289;SDS011;63176;52.678;13.250;2023-02-13T08:38:00;7.03;;;3.93;;
7289;SDS011;63176;52.678;13.250;2023-02-13T08:40:27;7.00;;;4.22;;
7289;SDS011;63176;52.678;13.250;2023-02-13T08:42:57;6.60;;;3.70;;
7289;SDS011;63176;52.678;13.250;2023-02-13T08:45:24;9.90;;;4.07;;
7289;SDS011;63176;52.678;13.250;2023-02-13T08:47:49;6.30;;;3.67;;
7289;SDS011;63176;52.678;13.250;2023-02-13T08:50:15;5.37;;;3.33;;
7289;SDS011;63176;52.678;13.250;2023-02-13T08:52:41;5.90;;;3.30;;
7289;SDS011;63176;52.678;13.250;2023-02-13T08:55:06;5.70;;;4.00;;
7289;SDS011;63176;52.678;13.250;2023-02-13T08:57:32;4.20;;;3.27;;
7289;SDS011;63176;52.678;13.250;2023-02-13T08:59:58;5.10;;;3.20;;
7289;SDS011;63176;52.678;13.250;2023-02-13T09:02:23;4.80;;;2.97;;
7289;SDS011;63176;52.678;13.250;2023-02-13T09:04:49;6.37;;;3.50;;
7289;SDS011;63176;52.678;13.250;2023-02-13T09:07:15;7.23;;;4.37;;
7289;SDS011;63176;52.678;13.250;2023-02-13T09:09:40;7.60;;;3.70;;
7289;SDS011;63176;52.678;13.250;2023-02-13T09:12:06;4.60;;;3.20;;
7289;SDS011;63176;52.678;13.250;2023-02-13T09:14:32;6.00;;;4.13;;
7289;SDS011;63176;52.678;13.250;2023-02-13T09:16:58;7.28;;;4.10;;
7289;SDS011;63176;52.678;13.250;2023-02-13T09:19:24;7.53;;;4.10;;
7289;SDS011;63176;52.678;13.250;2023-02-13T09:21:49;6.20;;;3.47;;
7289;SDS011;63176;52.678;13.250;2023-02-13T09:24:15;7.60;;;3.67;;
7289;SDS011;63176;52.678;13.250;2023-02-13T09:26:40;10.23;;;4.10;;
7289;SDS011;63176;52.678;13.250;2023-02-13T09:29:06;7.67;;;4.60;;
7289;SDS011;63176;52.678;13.250;2023-02-13T09:31:32;8.40;;;4.37;;
7289;SDS011;63176;52.678;13.250;2023-02-13T09:33:57;7.53;;;3.90;;
7289;SDS011;63176;52.678;13.250;2023-02-13T09:36:23;8.40;;;4.03;;
7289;SDS011;63176;52.678;13.250;2023-02-13T09:38:53;11.00;;;5.05;;
7289;SDS011;63176;52.678;13.250;2023-02-13T09:43:48;6.27;;;4.47;;
7289;SDS011;63176;52.678;13.250;2023-02-13T09:46:21;8.90;;;4.75;;
7289;SDS011;63176;52.678;13.250;2023-02-13T09:48:52;10.38;;;4.93;;
7289;SDS011;63176;52.678;13.250;2023-02-13T09:51:19;10.15;;;5.40;;
7289;SDS011;63176;52.678;13.250;2023-02-13T09:53:58;9.68;;;4.55;;
7289;SDS011;63176;52.678;13.250;2023-02-13T09:56:32;13.18;;;5.78;;
7289;SDS011;63176;52.678;13.250;2023-02-13T10:03:25;11.35;;;5.10;;
7289;SDS011;63176;52.678;13.250;2023-02-13T10:16:37;8.90;;;5.50;;
7289;SDS011;63176;52.678;13.250;2023-02-13T10:19:40;7.63;;;5.00;;
7289;SDS011;63176;52.678;13.250;2023-02-13T10:22:17;10.23;;;4.78;;
7289;SDS011;63176;52.678;13.250;2023-02-13T10:24:50;9.30;;;5.38;;
7289;SDS011;63176;52.678;13.250;2023-02-13T10:27:39;9.48;;;4.85;;
7289;SDS011;63176;52.678;13.250;2023-02-13T10:32:47;13.75;;;5.75;;
7289;SDS011;63176;52.678;13.250;2023-02-13T10:35:44;9.82;;;5.95;;
7289;SDS011;63176;52.678;13.250;2023-02-13T10:38:26;9.55;;;5.35;;
7289;SDS011;63176;52.678;13.250;2023-02-13T10:46:45;11.32;;;5.78;;
7289;SDS011;63176;52.678;13.250;2023-02-13T10:57:30;12.02;;;6.43;;
7289;SDS011;63176;52.678;13.250;2023-02-13T11:00:20;13.30;;;7.00;;
7289;SDS011;63176;52.678;13.250;2023-02-13T11:02:55;13.38;;;5.90;;
7289;SDS011;63176;52.678;13.250;2023-02-13T11:05:24;12.05;;;7.10;;
7289;SDS011;63176;52.678;13.250;2023-02-13T11:10:47;11.90;;;5.93;;
7289;SDS011;63176;52.678;13.250;2023-02-13T11:13:17;13.57;;;7.10;;
7289;SDS011;63176;52.678;13.250;2023-02-13T11:16:06;14.95;;;7.47;;
7289;SDS011;63176;52.678;13.250;2023-02-13T11:18:42;12.93;;;6.68;;
7289;SDS011;63176;52.678;13.250;2023-02-13T11:21:15;10.52;;;6.60;;
7289;SDS011;63176;52.678;13.250;2023-02-13T11:23:51;11.48;;;6.03;;
7289;SDS011;63176;52.678;13.250;2023-02-13T11:26:21;13.82;;;6.85;;
7289;SDS011;63176;52.678;13.250;2023-02-13T11:29:04;15.68;;;8.00;;
7289;SDS011;63176;52.678;13.250;2023-02-13T11:31:40;13.85;;;7.28;;
7289;SDS011;63176;52.678;13.250;2023-02-13T11:34:25;13.47;;;7.33;;
7289;SDS011;63176;52.678;13.250;2023-02-13T11:36:52;13.43;;;6.63;;
7289;SDS011;63176;52.678;13.250;2023-02-13T11:39:39;13.70;;;7.13;;
7289;SDS011;63176;52.678;13.250;2023-02-13T11:42:11;12.52;;;6.85;;
7289;SDS011;63176;52.678;13.250;2023-02-13T11:44:37;13.40;;;6.68;;
7289;SDS011;63176;52.678;13.250;2023-02-13T11:47:05;19.38;;;7.88;;
7289;SDS011;63176;52.678;13.250;2023-02-13T11:49:35;17.45;;;7.00;;
7289;SDS011;63176;52.678;13.250;2023-02-13T11:52:03;11.90;;;5.88;;
7289;SDS011;63176;52.678;13.250;2023-02-13T11:54:35;9.27;;;5.85;;
7289;SDS011;63176;52.678;13.250;2023-02-13T11:57:22;13.45;;;6.65;;
7289;SDS011;63176;52.678;13.250;2023-02-13T11:59:56;11.00;;;5.75;;
7289;SDS011;63176;52.678;13.250;2023-02-13T12:02:24;15.75;;;6.72;;
7289;SDS011;63176;52.678;13.250;2023-02-13T12:04:53;12.15;;;6.50;;
7289;SDS011;63176;52.678;13.250;2023-02-13T12:07:37;14.85;;;6.60;;
7289;SDS011;63176;52.678;13.250;2023-02-13T12:10:15;12.98;;;6.25;;
7289;SDS011;63176;52.678;13.250;2023-02-13T12:13:24;10.90;;;5.60;;
7289;SDS011;63176;52.678;13.250;2023-02-13T12:15:38;12.10;;;6.35;;
7289;SDS011;63176;52.678;13.250;2023-02-13T12:39:30;10.70;;;5.72;;
7289;SDS011;63176;52.678;13.250;2023-02-13T12:42:20;8.25;;;5.63;;
7289;SDS011;63176;52.678;13.250;2023-02-13T12:47:18;12.02;;;6.35;;
7289;SDS011;63176;52.678;13.250;2023-02-13T13:19:48;12.95;;;6.28;;
7289;SDS011;63176;52.678;13.250;2023-02-13T13:23:31;10.55;;;5.78;;
7289;SDS011;63176;52.678;13.250;2023-02-13T13:25:49;11.90;;;6.50;;
7289;SDS011;63176;52.678;13.250;2023-02-13T13:28:22;15.70;;;6.30;;
7289;SDS011;63176;52.678;13.250;2023-02-13T13:30:52;14.00;;;6.40;;
7289;SDS011;63176;52.678;13.250;2023-02-13T13:38:20;12.00;;;6.55;;
7289;SDS011;63176;52.678;13.250;2023-02-13T13:41:00;10.43;;;5.93;;
7289;SDS011;63176;52.678;13.250;2023-02-13T13:43:36;12.13;;;5.95;;
7289;SDS011;63176;52.678;13.250;2023-02-13T13:48:49;11.03;;;5.50;;
7289;SDS011;63176;52.678;13.250;2023-02-13T13:51:21;9.88;;;5.70;;
7289;SDS011;63176;52.678;13.250;2023-02-13T13:56:25;14.20;;;6.40;;
7289;SDS011;63176;52.678;13.250;2023-02-13T13:59:15;16.40;;;6.65;;
7289;SDS011;63176;52.678;13.250;2023-02-13T14:01:42;12.30;;;6.00;;
7289;SDS011;63176;52.678;13.250;2023-02-13T14:14:54;8.30;;;5.25;;
7289;SDS011;63176;52.678;13.250;2023-02-13T14:17:46;11.15;;;5.25;;
7289;SDS011;63176;52.678;13.250;2023-02-13T14:31:30;9.57;;;6.88;;
7289;SDS011;63176;52.678;13.250;2023-02-13T14:33:58;9.25;;;5.07;;
7289;SDS011;63176;52.678;13.250;2023-02-13T14:39:56;11.25;;;5.45;;
7289;SDS011;63176;52.678;13.250;2023-02-13T14:42:43;10.05;;;5.10;;
7289;SDS011;63176;52.678;13.250;2023-02-13T14:45:25;13.05;;;6.45;;
7289;SDS011;63176;52.678;13.250;2023-02-13T14:47:57;9.85;;;5.75;;
7289;SDS011;63176;52.678;13.250;2023-02-13T14:50:30;9.15;;;4.88;;
7289;SDS011;63176;52.678;13.250;2023-02-13T14:52:58;12.18;;;5.28;;
7289;SDS011;63176;52.678;13.250;2023-02-13T14:58:07;10.80;;;5.55;;
7289;SDS011;63176;52.678;13.250;2023-02-13T15:06:01;10.30;;;6.10;;
7289;SDS011;63176;52.678;13.250;2023-02-13T15:08:47;10.57;;;5.53;;
7289;SDS011;63176;52.678;13.250;2023-02-13T15:11:30;12.60;;;6.55;;
7289;SDS011;63176;52.678;13.250;2023-02-13T15:14:17;14.15;;;6.90;;
7289;SDS011;63176;52.678;13.250;2023-02-13T15:19:30;11.75;;;6.25;;
7289;SDS011;63176;52.678;13.250;2023-02-13T15:21:59;10.93;;;5.80;;
7289;SDS011;63176;52.678;13.250;2023-02-13T15:24:26;10.85;;;6.03;;
7289;SDS011;63176;52.678;13.250;2023-02-13T15:27:01;13.77;;;6.40;;
7289;SDS011;63176;52.678;13.250;2023-02-13T15:29:29;13.35;;;6.68;;
7289;SDS011;63176;52.678;13.250;2023-02-13T15:31:56;14.80;;;7.03;;
7289;SDS011;63176;52.678;13.250;2023-02-13T15:34:29;13.90;;;6.30;;
7289;SDS011;63176;52.678;13.250;2023-02-13T15:36:58;11.98;;;6.40;;
7289;SDS011;63176;52.678;13.250;2023-02-13T15:39:25;10.23;;;6.18;;
7289;SDS011;63176;52.678;13.250;2023-02-13T15:41:56;12.30;;;5.78;;
7289;SDS011;63176;52.678;13.250;2023-02-13T15:44:25;11.98;;;5.70;;
7289;SDS011;63176;52.678;13.250;2023-02-13T15:47:04;12.55;;;6.50;;
7289;SDS011;63176;52.678;13.250;2023-02-13T15:49:36;11.13;;;6.75;;
7289;SDS011;63176;52.678;13.250;2023-02-13T15:52:07;10.70;;;6.50;;
7289;SDS011;63176;52.678;13.250;2023-02-13T15:54:46;13.32;;;7.03;;
7289;SDS011;63176;52.678;13.250;2023-02-13T15:57:13;14.32;;;6.63;;
7289;SDS011;63176;52.678;13.250;2023-02-13T15:59:39;13.83;;;6.43;;
7289;SDS011;63176;52.678;13.250;2023-02-13T16:02:08;14.63;;;6.15;;
7289;SDS011;63176;52.678;13.250;2023-02-13T16:04:43;10.07;;;5.97;;
7289;SDS011;63176;52.678;13.250;2023-02-13T16:07:10;11.52;;;5.95;;
7289;SDS011;63176;52.678;13.250;2023-02-13T16:09:37;14.95;;;6.95;;
7289;SDS011;63176;52.678;13.250;2023-02-13T16:20:39;11.75;;;5.82;;
7289;SDS011;63176;52.678;13.250;2023-02-13T16:22:44;14.55;;;6.80;;
7289;SDS011;63176;52.678;13.250;2023-02-13T16:27:45;10.10;;;5.93;;
7289;SDS011;63176;52.678;13.250;2023-02-13T16:35:39;17.90;;;7.00;;
7289;SDS011;63176;52.678;13.250;2023-02-13T16:41:07;15.02;;;7.10;;
7289;SDS011;63176;52.678;13.250;2023-02-13T16:44:03;12.13;;;7.05;;
7289;SDS011;63176;52.678;13.250;2023-02-13T16:46:49;13.60;;;6.45;;
7289;SDS011;63176;52.678;13.250;2023-02-13T16:49:28;13.32;;;6.60;;
7289;SDS011;63176;52.678;13.250;2023-02-13T16:52:19;10.68;;;6.53;;
7289;SDS011;63176;52.678;13.250;2023-02-13T16:54:52;13.75;;;6.45;;
7289;SDS011;63176;52.678;13.250;2023-02-13T16:57:27;14.50;;;8.20;;
7289;SDS011;63176;52.678;13.250;2023-02-13T16:59:56;16.23;;;8.15;;
7289;SDS011;63176;52.678;13.250;2023-02-13T17:02:30;13.82;;;6.80;;
7289;SDS011;63176;52.678;13.250;2023-02-13T17:07:36;12.32;;;7.13;;
7289;SDS011;63176;52.678;13.250;2023-02-13T17:12:41;13.73;;;6.32;;
7289;SDS011;63176;52.678;13.250;2023-02-13T17:15:12;13.90;;;7.57;;
7289;SDS011;63176;52.678;13.250;2023-02-13T17:17:39;13.38;;;7.22;;
7289;SDS011;63176;52.678;13.250;2023-02-13T17:20:05;16.47;;;7.70;;
7289;SDS011;63176;52.678;13.250;2023-02-13T17:22:38;13.77;;;6.88;;
7289;SDS011;63176;52.678;13.250;2023-02-13T17:25:07;11.63;;;6.47;;
7289;SDS011;63176;52.678;13.250;2023-02-13T17:27:39;13.40;;;7.50;;
7289;SDS011;63176;52.678;13.250;2023-02-13T17:30:07;15.32;;;7.85;;
7289;SDS011;63176;52.678;13.250;2023-02-13T17:32:43;15.07;;;7.13;;
7289;SDS011;63176;52.678;13.250;2023-02-13T17:35:10;13.73;;;7.30;;
7289;SDS011;63176;52.678;13.250;2023-02-13T17:37:36;15.40;;;8.20;;
7289;SDS011;63176;52.678;13.250;2023-02-13T17:40:04;18.00;;;8.30;;
7289;SDS011;63176;52.678;13.250;2023-02-13T17:42:30;17.83;;;8.68;;
7289;SDS011;63176;52.678;13.250;2023-02-13T17:44:56;14.80;;;7.93;;
7289;SDS011;63176;52.678;13.250;2023-02-13T17:47:23;13.50;;;7.28;;
7289;SDS011;63176;52.678;13.250;2023-02-13T17:49:49;17.02;;;7.82;;
7289;SDS011;63176;52.678;13.250;2023-02-13T17:52:17;14.63;;;7.47;;
7289;SDS011;63176;52.678;13.250;2023-02-13T17:54:48;15.45;;;8.23;;
7289;SDS011;63176;52.678;13.250;2023-02-13T17:57:14;16.33;;;8.50;;
7289;SDS011;63176;52.678;13.250;2023-02-13T17:59:41;15.30;;;7.20;;
7289;SDS011;63176;52.678;13.250;2023-02-13T18:04:41;17.05;;;7.60;;
7289;SDS011;63176;52.678;13.250;2023-02-13T18:07:06;16.67;;;7.87;;
7289;SDS011;63176;52.678;13.250;2023-02-13T18:09:33;14.13;;;7.25;;
7289;SDS011;63176;52.678;13.250;2023-02-13T18:11:59;16.13;;;8.70;;
7289;SDS011;63176;52.678;13.250;2023-02-13T18:14:27;15.07;;;7.20;;
7289;SDS011;63176;52.678;13.250;2023-02-13T18:16:56;15.60;;;7.50;;
7289;SDS011;63176;52.678;13.250;2023-02-13T18:19:22;13.67;;;7.10;;
7289;SDS011;63176;52.678;13.250;2023-02-13T18:21:48;17.00;;;8.43;;
7289;SDS011;63176;52.678;13.250;2023-02-13T18:24:15;11.80;;;7.83;;
7289;SDS011;63176;52.678;13.250;2023-02-13T18:26:40;11.80;;;5.95;;
7289;SDS011;63176;52.678;13.250;2023-02-13T18:29:06;17.00;;;8.47;;
7289;SDS011;63176;52.678;13.250;2023-02-13T18:31:31;14.30;;;6.83;;
7289;SDS011;63176;52.678;13.250;2023-02-13T18:33:57;11.97;;;7.33;;
7289;SDS011;63176;52.678;13.250;2023-02-13T18:36:23;16.80;;;8.03;;